createdAt,value
2023-03-02T00:00:16.868Z,57.22
2023-03-02T00:03:18.447Z,57.18
2023-03-02T00:06:20.139Z,57.27
2023-03-02T00:09:21.680Z,57.30
2023-03-02T00:12:23.677Z,57.40
2023-03-02T00:15:25.258Z,57.21
2023-03-02T00:18:26.708Z,57.18
2023-03-02T00:21:28.273Z,57.29
2023-03-02T00:24:29.719Z,57.03
2023-03-02T00:27:31.258Z,57.25
2023-03-02T00:30:32.783Z,57.26
2023-03-02T00:33:34.647Z,57.29
2023-03-02T00:36:36.233Z,57.37
2023-03-02T00:39:37.748Z,57.27
2023-03-02T00:42:39.355Z,57.25
2023-03-02T00:45:41.218Z,57.30
2023-03-02T00:48:43.451Z,57.33
2023-03-02T00:51:44.916Z,57.31
2023-03-02T00:54:46.383Z,57.28
2023-03-02T00:57:54.916Z,57.28
2023-03-02T01:01:06.561Z,57.32
2023-03-02T01:04:09.675Z,57.24
2023-03-02T01:07:14.767Z,57.21
2023-03-02T01:10:17.082Z,57.33
2023-03-02T01:13:19.605Z,57.18
2023-03-02T01:16:21.240Z,57.31
2023-03-02T01:19:22.878Z,57.23
2023-03-02T01:22:24.390Z,57.30
2023-03-02T01:25:25.884Z,57.52
2023-03-02T01:28:27.707Z,57.54
2023-03-02T01:31:30.291Z,57.57
2023-03-02T01:34:32.055Z,57.61
2023-03-02T01:37:34.186Z,57.71
2023-03-02T01:40:35.716Z,57.75
2023-03-02T01:43:37.718Z,57.95
2023-03-02T01:46:39.265Z,57.84
2023-03-02T01:49:49.669Z,57.89
2023-03-02T01:52:52.729Z,58.03
2023-03-02T01:55:54.796Z,57.98
2023-03-02T01:59:05.761Z,57.90
2023-03-02T02:02:10.660Z,58.21
2023-03-02T02:05:17.513Z,58.19
2023-03-02T02:08:19.258Z,58.16
2023-03-02T02:11:20.898Z,58.26
2023-03-02T02:14:25.600Z,58.38
2023-03-02T02:17:31.185Z,58.44
2023-03-02T02:20:37.275Z,58.60
2023-03-02T02:24:11.096Z,58.46
2023-03-02T02:27:13.675Z,58.57
2023-03-02T02:30:16.806Z,58.58
2023-03-02T02:33:23.257Z,58.61
2023-03-02T02:36:34.768Z,58.60
2023-03-02T02:39:45.179Z,58.64
2023-03-02T02:42:49.013Z,58.61
2023-03-02T02:45:54.999Z,58.69
2023-03-02T02:48:56.647Z,58.80
2023-03-02T02:52:00.056Z,58.82
2023-03-02T02:55:02.691Z,58.90
2023-03-02T02:58:13.632Z,58.86
2023-03-02T03:01:18.370Z,58.85
2023-03-02T03:04:28.028Z,58.89
2023-03-02T03:07:31.803Z,59.07
2023-03-02T03:10:40.234Z,59.05
2023-03-02T03:13:44.382Z,58.85
2023-03-02T03:16:48.240Z,58.99
2023-03-02T03:19:49.788Z,59.00
2023-03-02T03:22:53.432Z,58.97
2023-03-02T03:25:55.717Z,58.96
2023-03-02T03:28:57.422Z,59.06
2023-03-02T03:32:00.646Z,59.13
2023-03-02T03:35:03.798Z,59.13
2023-03-02T03:38:08.304Z,59.00
2023-03-02T03:41:09.862Z,59.07
2023-03-02T03:44:11.513Z,59.03
2023-03-02T03:47:15.774Z,59.11
2023-03-02T03:50:17.897Z,59.06
2023-03-02T03:53:19.497Z,59.06
2023-03-02T03:56:21.210Z,59.08
2023-03-02T03:59:25.412Z,59.07
2023-03-02T04:02:31.783Z,59.13
2023-03-02T04:05:34.193Z,59.16
2023-03-02T04:08:37.380Z,59.20
2023-03-02T04:11:41.080Z,59.21
2023-03-02T04:14:42.605Z,59.32
2023-03-02T04:17:44.956Z,59.27
2023-03-02T04:20:47.854Z,59.41
2023-03-02T04:23:49.468Z,59.48
2023-03-02T04:26:51.817Z,59.57
2023-03-02T04:29:54.004Z,59.50
2023-03-02T04:32:57.513Z,59.60
2023-03-02T04:36:01.077Z,59.58
2023-03-02T04:39:04.482Z,59.57
2023-03-02T04:42:06.049Z,59.58
2023-03-02T04:45:08.047Z,59.56
2023-03-02T04:48:09.564Z,59.39
2023-03-02T04:51:18.711Z,59.45
2023-03-02T04:54:25.300Z,59.53
2023-03-02T04:57:26.798Z,59.41
2023-03-02T05:00:28.859Z,59.40
2023-03-02T05:03:30.458Z,59.24
2023-03-02T05:06:32.320Z,59.18
2023-03-02T05:09:34.086Z,59.41
2023-03-02T05:12:54.338Z,59.25
2023-03-02T05:15:57.516Z,58.99
2023-03-02T05:19:00.195Z,59.01
2023-03-02T05:22:02.069Z,59.12
2023-03-02T05:25:04.570Z,59.15
2023-03-02T05:28:06.087Z,59.15
2023-03-02T05:31:08.058Z,59.05
2023-03-02T05:34:14.212Z,59.02
2023-03-02T05:37:15.733Z,59.14
2023-03-02T05:40:19.280Z,59.17
2023-03-02T05:43:21.770Z,59.21
2023-03-02T05:46:23.605Z,59.13
2023-03-02T05:49:25.099Z,59.31
2023-03-02T05:52:26.659Z,59.24
2023-03-02T05:55:28.825Z,59.36
2023-03-02T05:58:30.419Z,59.50
2023-03-02T06:01:32.176Z,59.26
2023-03-02T06:04:34.074Z,59.44
2023-03-02T06:07:35.621Z,59.42
2023-03-02T06:10:37.145Z,59.46
2023-03-02T06:13:39.854Z,59.57
2023-03-02T06:16:41.467Z,59.55
2023-03-02T06:19:43.120Z,59.74
2023-03-02T06:22:46.800Z,59.81
2023-03-02T06:25:48.859Z,59.78
2023-03-02T06:28:53.155Z,59.88
2023-03-02T06:31:55.329Z,59.73
2023-03-02T06:34:57.107Z,59.55
2023-03-02T06:37:58.811Z,59.62
2023-03-02T06:41:00.374Z,59.62
2023-03-02T06:44:02.104Z,59.60
2023-03-02T06:47:03.630Z,59.41
2023-03-02T06:50:06.205Z,59.33
2023-03-02T06:53:07.735Z,59.30
2023-03-02T06:56:10.063Z,59.28
2023-03-02T06:59:11.658Z,59.13
2023-03-02T07:02:13.288Z,59.18
2023-03-02T07:05:14.878Z,59.12
2023-03-02T07:08:16.388Z,59.14
2023-03-02T07:11:17.898Z,58.96
2023-03-02T07:14:19.381Z,59.14
2023-03-02T07:17:20.958Z,59.12
2023-03-02T07:20:22.549Z,59.05
2023-03-02T07:23:24.090Z,58.96
2023-03-02T07:26:25.567Z,58.97
2023-03-02T07:29:27.123Z,58.88
2023-03-02T07:32:28.735Z,58.95
2023-03-02T07:35:30.329Z,58.65
2023-03-02T07:38:31.906Z,59.08
2023-03-02T07:41:33.786Z,58.93
2023-03-02T07:44:35.527Z,58.88
2023-03-02T07:47:37.084Z,58.96
2023-03-02T07:50:38.651Z,58.78
2023-03-02T07:53:40.221Z,58.93
2023-03-02T07:56:41.763Z,58.99
2023-03-02T07:59:43.678Z,58.97
2023-03-02T08:02:45.233Z,59.00
2023-03-02T08:05:46.769Z,59.21
2023-03-02T08:08:48.629Z,59.02
2023-03-02T08:11:50.138Z,59.09
2023-03-02T08:14:51.830Z,59.28
2023-03-02T08:17:53.376Z,59.08
2023-03-02T08:20:55.218Z,59.06
2023-03-02T08:23:57.623Z,59.11
2023-03-02T08:27:03.118Z,58.95
2023-03-02T08:30:05.237Z,59.03
2023-03-02T08:33:07.305Z,58.90
2023-03-02T08:36:14.803Z,59.06
2023-03-02T08:39:16.267Z,59.04
2023-03-02T08:42:18.320Z,58.94
2023-03-02T08:45:20.795Z,59.04
2023-03-02T08:48:22.438Z,59.05
2023-03-02T08:51:25.440Z,58.97
2023-03-02T08:54:27.129Z,58.97
2023-03-02T08:57:28.622Z,58.96
2023-03-02T09:00:31.741Z,58.89
2023-03-02T09:03:33.258Z,58.92
2023-03-02T09:06:44.020Z,58.80
2023-03-02T09:09:45.481Z,58.81
2023-03-02T09:12:47.025Z,58.84
2023-03-02T09:15:48.458Z,58.88
2023-03-02T09:18:50.120Z,58.79
2023-03-02T09:21:51.579Z,58.81
2023-03-02T09:24:53.013Z,58.79
2023-03-02T09:27:54.458Z,58.74
2023-03-02T09:31:03.433Z,59.20
2023-03-02T09:34:05.618Z,59.39
2023-03-02T09:37:07.148Z,59.60
2023-03-02T09:40:25.188Z,59.60
2023-03-02T09:43:53.499Z,59.76
2023-03-02T09:47:34.929Z,59.86
2023-03-02T09:50:46.437Z,60.22
2023-03-02T09:54:10.994Z,60.49
2023-03-02T09:57:26.566Z,60.63
2023-03-02T10:00:36.126Z,61.13
2023-03-02T10:03:54.165Z,61.86
2023-03-02T10:07:01.388Z,61.79
2023-03-02T10:10:08.956Z,61.98
2023-03-02T10:13:40.605Z,62.22
2023-03-02T10:16:49.564Z,62.10
2023-03-02T10:19:56.614Z,61.98
2023-03-02T10:23:24.327Z,62.00
2023-03-02T10:26:35.395Z,62.08
2023-03-02T10:29:43.112Z,62.26
2023-03-02T10:32:52.407Z,62.17
2023-03-02T10:35:54.134Z,62.35
2023-03-02T10:38:57.628Z,62.24
2023-03-02T10:42:03.525Z,62.36
2023-03-02T10:45:23.876Z,62.33
2023-03-02T10:48:25.367Z,62.49
2023-03-02T10:51:32.007Z,62.45
2023-03-02T10:54:34.625Z,62.44
2023-03-02T10:57:38.702Z,62.40
2023-03-02T11:00:40.177Z,62.33
2023-03-02T11:03:41.818Z,62.23
2023-03-02T11:06:43.352Z,62.19
2023-03-02T11:10:00.521Z,62.27
2023-03-02T11:13:06.163Z,62.22
2023-03-02T11:16:16.800Z,62.26
2023-03-02T11:19:34.661Z,62.15
2023-03-02T11:22:53.350Z,62.16
2023-03-02T11:25:59.899Z,62.11
2023-03-02T11:29:11.850Z,62.00
2023-03-02T11:32:34.529Z,61.93
2023-03-02T11:35:53.046Z,61.95
2023-03-02T11:38:55.207Z,61.88
2023-03-02T11:41:56.791Z,61.88
2023-03-02T11:45:03.729Z,61.78
2023-03-02T11:48:26.610Z,61.74
2023-03-02T11:55:24.528Z,61.63
2023-03-02T11:58:29.652Z,61.47
2023-03-02T12:01:33.628Z,61.46
2023-03-02T12:04:38.141Z,61.36
2023-03-02T12:07:39.673Z,61.20
2023-03-02T12:10:44.401Z,61.04
2023-03-02T12:13:57.765Z,60.87
2023-03-02T12:17:25.425Z,60.72
2023-03-02T12:20:29.854Z,60.57
2023-03-02T12:23:34.217Z,60.58
2023-03-02T12:26:37.586Z,60.50
2023-03-02T12:29:43.582Z,60.39
2023-03-02T12:32:58.166Z,60.40
2023-03-02T12:36:10.098Z,60.34
2023-03-02T12:39:42.847Z,60.35
2023-03-02T12:42:49.349Z,60.40
2023-03-02T12:46:09.730Z,60.44
2023-03-02T12:49:33.393Z,60.32
2023-03-02T12:52:36.516Z,60.37
2023-03-02T12:55:38.580Z,60.44
2023-03-02T12:58:40.157Z,60.40
2023-03-02T13:01:41.644Z,60.06
2023-03-02T13:04:43.225Z,60.44
2023-03-02T13:07:56.358Z,60.48
2023-03-02T13:11:01.016Z,60.46
2023-03-02T13:14:17.448Z,60.44
2023-03-02T13:17:32.915Z,60.64
2023-03-02T13:20:34.592Z,60.70
2023-03-02T13:23:36.217Z,60.67
2023-03-02T13:26:39.778Z,60.68
2023-03-02T13:29:41.350Z,60.71
2023-03-02T13:32:45.682Z,60.75
2023-03-02T13:35:47.807Z,60.84
2023-03-02T13:38:52.639Z,60.84
2023-03-02T13:41:59.399Z,60.90
2023-03-02T13:45:31.251Z,60.92
2023-03-02T13:48:33.670Z,61.10
2023-03-02T13:51:38.190Z,61.11
2023-03-02T13:54:42.576Z,61.25
2023-03-02T13:57:45.811Z,61.45
2023-03-02T14:00:48.381Z,61.64
2023-03-02T14:03:50.002Z,61.91
2023-03-02T14:06:54.535Z,62.14
2023-03-02T14:09:57.602Z,62.04
2023-03-02T14:13:05.708Z,62.44
2023-03-02T14:16:10.788Z,62.56
2023-03-02T14:19:22.282Z,62.61
2023-03-02T14:22:26.844Z,62.66
2023-03-02T14:25:28.458Z,62.66
2023-03-02T14:28:33.006Z,62.72
2023-03-02T14:31:35.013Z,62.99
2023-03-02T14:34:37.394Z,62.81
2023-03-02T14:37:45.437Z,62.82
2023-03-02T14:40:47.203Z,62.81
2023-03-02T14:43:49.446Z,62.97
2023-03-02T14:46:51.310Z,62.92
2023-03-02T14:49:53.538Z,63.16
2023-03-02T14:52:57.729Z,63.02
2023-03-02T14:56:00.502Z,63.18
2023-03-02T14:59:02.058Z,63.10
2023-03-02T15:02:12.964Z,63.24
2023-03-02T15:05:20.676Z,63.35
2023-03-02T15:08:23.050Z,63.39
2023-03-02T15:11:26.467Z,63.32
2023-03-02T15:14:27.935Z,63.40
2023-03-02T15:17:29.432Z,63.05
2023-03-02T15:20:31.166Z,63.20
2023-03-02T15:23:32.922Z,63.07
2023-03-02T15:26:34.438Z,63.10
2023-03-02T15:29:35.948Z,63.08
2023-03-02T15:32:38.107Z,63.00
2023-03-02T15:35:40.805Z,62.95
2023-03-02T15:38:42.328Z,63.07
2023-03-02T15:41:43.870Z,62.74
2023-03-02T15:44:45.389Z,62.78
2023-03-02T15:47:47.105Z,62.76
2023-03-02T15:51:06.531Z,62.66
2023-03-02T15:54:10.717Z,62.65
2023-03-02T15:57:12.562Z,62.53
2023-03-02T16:00:14.447Z,62.59
2023-03-02T16:03:16.388Z,62.65
2023-03-02T16:06:18.080Z,62.65
2023-03-02T16:09:19.562Z,62.73
2023-03-02T16:12:23.305Z,62.90
2023-03-02T16:15:24.840Z,62.69
2023-03-02T16:18:26.308Z,62.73
2023-03-02T16:21:31.222Z,62.83
2023-03-02T16:24:32.687Z,63.07
2023-03-02T16:27:34.206Z,62.49
2023-03-02T16:30:36.513Z,62.81
2023-03-02T16:33:39.460Z,62.81
2023-03-02T16:36:42.112Z,62.78
2023-03-02T16:39:43.615Z,62.83
2023-03-02T16:42:45.155Z,62.81
2023-03-02T16:45:47.518Z,62.87
2023-03-02T16:48:49.687Z,63.05
2023-03-02T16:51:56.792Z,63.03
2023-03-02T16:54:59.251Z,63.08
2023-03-02T16:58:00.721Z,63.03
2023-03-02T17:01:02.283Z,63.22
2023-03-02T17:04:05.950Z,63.20
2023-03-02T17:07:08.256Z,63.20
2023-03-02T17:10:14.757Z,62.97
2023-03-02T17:13:17.071Z,63.07
2023-03-02T17:16:19.183Z,63.05
2023-03-02T17:19:20.720Z,63.29
2023-03-02T17:22:22.228Z,63.38
2023-03-02T17:25:23.870Z,63.46
2023-03-02T17:28:25.394Z,63.61
2023-03-02T17:31:27.080Z,63.64
2023-03-02T17:34:31.173Z,63.47
2023-03-02T17:37:33.061Z,63.31
2023-03-02T17:40:34.628Z,63.26
2023-03-02T17:43:38.220Z,63.16
2023-03-02T17:46:43.024Z,62.90
2023-03-02T17:49:45.173Z,58.66
2023-03-02T17:52:47.029Z,56.64
2023-03-02T17:55:48.526Z,58.79
2023-03-02T17:58:55.725Z,60.16
2023-03-02T18:01:57.272Z,60.61
2023-03-02T18:04:59.222Z,60.78
2023-03-02T18:08:00.752Z,61.11
2023-03-02T18:11:04.254Z,61.21
2023-03-02T18:14:05.798Z,61.42
2023-03-02T18:17:09.221Z,61.43
2023-03-02T18:20:11.971Z,61.46
2023-03-02T18:23:13.746Z,61.53
2023-03-02T18:26:16.100Z,61.60
2023-03-02T18:29:17.637Z,61.57
2023-03-02T18:32:19.182Z,61.62
2023-03-02T18:35:21.279Z,61.62
2023-03-02T18:38:30.599Z,61.51
2023-03-02T18:41:32.556Z,61.66
2023-03-02T18:44:34.714Z,61.70
2023-03-02T18:47:36.590Z,61.69
2023-03-02T18:50:39.541Z,61.74
2023-03-02T18:53:42.928Z,61.80
2023-03-02T18:56:44.589Z,61.70
2023-03-02T18:59:46.099Z,61.73
2023-03-02T19:02:47.966Z,61.69
2023-03-02T19:05:49.520Z,61.87
2023-03-02T19:08:51.063Z,61.86
2023-03-02T19:11:52.536Z,61.67
2023-03-02T19:14:55.587Z,61.71
2023-03-02T19:17:57.222Z,61.67
2023-03-02T19:20:59.112Z,61.88
2023-03-02T19:24:01.752Z,61.85
2023-03-02T19:27:03.538Z,61.82
2023-03-02T19:30:07.192Z,61.85
2023-03-02T19:33:09.788Z,61.87
2023-03-02T19:36:12.584Z,61.69
2023-03-02T19:39:14.426Z,61.54
2023-03-02T19:42:16.113Z,61.66
2023-03-02T19:45:31.211Z,61.49
2023-03-02T19:48:33.949Z,61.58
2023-03-02T19:51:35.587Z,61.18
2023-03-02T19:54:37.072Z,61.38
2023-03-02T19:57:39.950Z,61.21
2023-03-02T20:00:41.421Z,61.13
2023-03-02T20:03:44.092Z,61.29
2023-03-02T20:06:45.776Z,61.17
2023-03-02T20:09:47.330Z,61.33
2023-03-02T20:12:48.920Z,60.78
2023-03-02T20:15:51.138Z,55.49
2023-03-02T20:18:52.988Z,54.81
2023-03-02T20:21:54.582Z,57.03
2023-03-02T20:24:56.318Z,58.11
2023-03-02T20:27:58.465Z,58.56
2023-03-02T20:31:03.163Z,58.86
2023-03-02T20:34:08.970Z,58.83
2023-03-02T20:37:13.467Z,58.77
2023-03-02T20:40:17.395Z,58.84
2023-03-02T20:43:19.377Z,59.07
2023-03-02T20:46:33.848Z,58.83
2023-03-02T20:49:37.362Z,58.80
2023-03-02T20:52:38.885Z,58.64
2023-03-02T20:55:40.695Z,58.88
2023-03-02T20:58:43.334Z,58.73
2023-03-02T21:01:44.886Z,58.79
2023-03-02T21:04:47.097Z,58.74
2023-03-02T21:07:49.397Z,58.56
2023-03-02T21:10:51.155Z,58.80
2023-03-02T21:13:52.869Z,58.64
2023-03-02T21:16:54.509Z,58.55
2023-03-02T21:19:56.426Z,58.62
2023-03-02T21:22:59.443Z,58.47
2023-03-02T21:26:01.048Z,58.54
2023-03-02T21:29:03.748Z,58.56
2023-03-02T21:32:07.633Z,58.54
2023-03-02T21:35:09.992Z,58.80
2023-03-02T21:38:11.654Z,58.28
2023-03-02T21:41:13.215Z,58.65
2023-03-02T21:44:14.993Z,58.61
2023-03-02T21:47:16.478Z,58.58
2023-03-02T21:50:26.362Z,58.62
2023-03-02T21:53:27.903Z,58.55
2023-03-02T21:56:29.387Z,58.50
2023-03-02T21:59:30.884Z,58.69
2023-03-02T22:02:33.154Z,58.60
2023-03-02T22:05:35.356Z,58.70
2023-03-02T22:08:39.108Z,58.96
2023-03-02T22:11:40.736Z,58.63
2023-03-02T22:14:42.348Z,58.68
2023-03-02T22:17:43.914Z,58.60
2023-03-02T22:20:48.162Z,58.63
2023-03-02T22:23:49.965Z,58.73
2023-03-02T22:27:16.109Z,58.57
2023-03-02T22:30:23.617Z,58.60
2023-03-02T22:33:28.152Z,58.62
2023-03-02T22:36:29.617Z,58.58
2023-03-02T22:39:33.175Z,58.53
2023-03-02T22:42:34.649Z,58.61
2023-03-02T22:45:38.196Z,58.59
2023-03-02T22:48:41.131Z,58.62
2023-03-02T22:51:42.702Z,58.71
2023-03-02T22:54:45.545Z,58.53
2023-03-02T22:57:47.103Z,58.53
2023-03-02T23:00:48.897Z,58.70
2023-03-02T23:03:58.282Z,58.76
2023-03-02T23:07:02.593Z,58.76
2023-03-02T23:10:04.461Z,58.87
2023-03-02T23:13:05.977Z,58.80
2023-03-02T23:16:14.537Z,58.81
2023-03-02T23:19:16.071Z,58.84
2023-03-02T23:22:18.290Z,58.80
2023-03-02T23:25:19.878Z,58.72
2023-03-02T23:28:21.362Z,58.61
2023-03-02T23:31:22.905Z,58.73
2023-03-02T23:34:24.567Z,58.75
2023-03-02T23:37:26.088Z,58.71
2023-03-02T23:40:28.918Z,58.81
2023-03-02T23:43:30.421Z,58.81
2023-03-02T23:46:32.306Z,58.94
2023-03-02T23:49:33.805Z,58.97
2023-03-02T23:52:35.270Z,58.81
2023-03-02T23:55:39.460Z,59.17
2023-03-02T23:58:41.006Z,59.22
